createdAt,value
2023-02-02T00:02:48.674Z,33.73
2023-02-02T00:05:54.386Z,34.50
2023-02-02T00:08:58.265Z,31.60
2023-02-02T00:12:01.520Z,31.67
2023-02-02T00:15:04.145Z,34.70
2023-02-02T00:18:06.728Z,29.00
2023-02-02T00:21:08.854Z,31.70
2023-02-02T00:24:12.496Z,29.13
2023-02-02T00:27:15.636Z,30.05
2023-02-02T00:30:18.054Z,31.47
2023-02-02T00:33:24.810Z,30.60
2023-02-02T00:36:26.986Z,31.50
2023-02-02T00:39:29.765Z,29.37
2023-02-02T00:42:31.877Z,29.77
2023-02-02T00:45:33.906Z,27.77
2023-02-02T00:48:38.400Z,29.17
2023-02-02T00:51:40.520Z,29.55
2023-02-02T00:54:43.677Z,31.33
2023-02-02T00:57:46.293Z,27.30
2023-02-02T01:00:48.301Z,26.10
2023-02-02T01:03:51.124Z,28.07
2023-02-02T01:06:53.210Z,28.90
2023-02-02T01:09:55.367Z,32.80
2023-02-02T01:12:57.412Z,30.00
2023-02-02T01:16:01.175Z,30.03
2023-02-02T01:19:03.312Z,29.00
2023-02-02T01:22:05.539Z,28.43
2023-02-02T01:25:07.839Z,28.20
2023-02-02T01:28:16.868Z,29.27
2023-02-02T01:31:20.151Z,30.97
2023-02-02T01:34:22.323Z,27.13
2023-02-02T01:37:24.392Z,25.83
2023-02-02T01:40:26.552Z,24.43
2023-02-02T01:43:44.719Z,21.50
2023-02-02T01:46:46.938Z,25.07
2023-02-02T01:49:50.943Z,21.57
2023-02-02T01:52:55.507Z,21.57
2023-02-02T01:55:57.653Z,20.48
2023-02-02T01:59:00.973Z,19.87
2023-02-02T02:02:03.621Z,19.23
2023-02-02T02:05:07.858Z,18.57
2023-02-02T02:08:19.662Z,18.60
2023-02-02T02:11:23.707Z,20.93
2023-02-02T02:14:44.385Z,18.83
2023-02-02T02:18:15.639Z,21.33
2023-02-02T02:21:57.088Z,19.90
2023-02-02T02:25:48.940Z,19.63
2023-02-02T02:29:12.489Z,18.97
2023-02-02T02:32:27.698Z,21.23
2023-02-02T02:35:35.535Z,23.58
2023-02-02T02:39:17.644Z,21.07
2023-02-02T02:42:24.361Z,19.50
2023-02-02T02:45:29.190Z,18.47
2023-02-02T02:48:31.227Z,20.27
2023-02-02T02:52:01.931Z,23.33
2023-02-02T02:55:05.565Z,20.27
2023-02-02T02:58:14.132Z,23.90
2023-02-02T03:01:26.068Z,21.17
2023-02-02T03:04:51.794Z,21.20
2023-02-02T03:11:02.424Z,21.20
2023-02-02T03:14:09.704Z,22.47
2023-02-02T03:17:11.823Z,21.17
2023-02-02T03:20:15.221Z,21.10
2023-02-02T03:23:17.231Z,18.83
2023-02-02T03:26:19.481Z,19.43
2023-02-02T03:29:21.712Z,19.73
2023-02-02T03:32:23.908Z,20.77
2023-02-02T03:35:26.608Z,20.73
2023-02-02T03:38:30.537Z,19.80
2023-02-02T03:41:32.640Z,18.17
2023-02-02T03:44:34.870Z,22.40
2023-02-02T03:47:36.962Z,22.53
2023-02-02T03:50:39.140Z,22.93
2023-02-02T03:53:47.641Z,21.57
2023-02-02T03:56:49.771Z,20.90
2023-02-02T03:59:52.066Z,19.63
2023-02-02T04:02:55.060Z,19.87
2023-02-02T04:05:57.138Z,19.53
2023-02-02T04:09:00.116Z,21.67
2023-02-02T04:12:02.645Z,20.07
2023-02-02T04:15:05.276Z,18.17
2023-02-02T04:18:07.353Z,19.67
2023-02-02T04:21:09.638Z,18.83
2023-02-02T04:24:12.940Z,19.70
2023-02-02T04:27:19.284Z,17.23
2023-02-02T04:30:21.407Z,16.73
2023-02-02T04:33:25.028Z,19.47
2023-02-02T04:36:27.347Z,18.47
2023-02-02T04:39:31.292Z,16.80
2023-02-02T04:42:35.105Z,15.73
2023-02-02T04:45:37.811Z,16.87
2023-02-02T04:48:41.504Z,17.10
2023-02-02T04:51:44.220Z,17.63
2023-02-02T04:54:46.229Z,17.00
2023-02-02T04:57:48.426Z,18.20
2023-02-02T05:00:50.649Z,17.20
2023-02-02T05:03:53.306Z,15.77
2023-02-02T05:06:55.592Z,15.03
2023-02-02T05:09:58.612Z,16.20
2023-02-02T05:13:00.638Z,17.00
2023-02-02T05:16:03.690Z,16.23
2023-02-02T05:19:06.378Z,16.03
2023-02-02T05:22:08.685Z,15.30
2023-02-02T05:25:10.960Z,14.93
2023-02-02T05:28:13.114Z,16.20
2023-02-02T05:31:15.482Z,16.80
2023-02-02T05:34:17.727Z,16.43
2023-02-02T05:37:20.735Z,16.53
2023-02-02T05:40:23.817Z,13.87
2023-02-02T05:43:27.717Z,13.07
2023-02-02T05:46:30.364Z,12.33
2023-02-02T05:49:32.371Z,12.73
2023-02-02T05:52:35.790Z,14.00
2023-02-02T05:55:37.830Z,13.27
2023-02-02T05:58:39.835Z,14.70
2023-02-02T06:01:41.849Z,14.20
2023-02-02T06:04:44.237Z,14.53
2023-02-02T06:07:46.260Z,16.17
2023-02-02T06:10:48.382Z,16.50
2023-02-02T06:13:50.719Z,18.70
2023-02-02T06:16:52.833Z,20.30
2023-02-02T06:19:55.019Z,20.67
2023-02-02T06:22:57.029Z,19.43
2023-02-02T06:25:59.749Z,20.03
2023-02-02T06:29:03.108Z,19.73
2023-02-02T06:32:05.200Z,21.87
2023-02-02T06:35:08.162Z,21.00
2023-02-02T06:38:11.478Z,20.00
2023-02-02T06:41:13.533Z,19.37
2023-02-02T06:44:15.700Z,17.40
2023-02-02T06:47:17.712Z,17.90
2023-02-02T06:50:20.213Z,19.37
2023-02-02T06:53:25.942Z,19.77
2023-02-02T06:56:28.120Z,17.53
2023-02-02T06:59:30.138Z,18.70
2023-02-02T07:02:32.522Z,18.63
2023-02-02T07:05:34.519Z,17.33
2023-02-02T07:08:36.589Z,19.20
2023-02-02T07:11:39.530Z,18.33
2023-02-02T07:14:47.641Z,17.53
2023-02-02T07:17:49.686Z,19.30
2023-02-02T07:20:51.817Z,18.07
2023-02-02T07:23:53.811Z,17.57
2023-02-02T07:26:58.232Z,17.30
2023-02-02T07:30:00.590Z,15.60
2023-02-02T07:33:02.704Z,19.90
2023-02-02T07:36:04.897Z,17.87
2023-02-02T07:39:12.139Z,17.10
2023-02-02T07:42:14.171Z,17.80
2023-02-02T07:45:24.644Z,18.47
2023-02-02T07:48:30.941Z,16.33
2023-02-02T07:51:32.990Z,15.23
2023-02-02T07:54:36.003Z,15.33
2023-02-02T07:57:38.291Z,14.70
2023-02-02T08:00:40.399Z,14.20
2023-02-02T08:03:45.946Z,13.33
2023-02-02T08:06:48.479Z,12.97
2023-02-02T08:09:51.268Z,12.53
2023-02-02T08:12:53.309Z,12.97
2023-02-02T08:15:58.456Z,27.43
2023-02-02T08:19:02.101Z,14.97
2023-02-02T08:22:04.159Z,13.37
2023-02-02T08:25:06.575Z,14.00
2023-02-02T08:28:09.488Z,11.93
2023-02-02T08:31:23.715Z,11.83
2023-02-02T08:34:27.164Z,11.80
2023-02-02T08:37:29.423Z,11.43
2023-02-02T08:40:31.474Z,12.47
2023-02-02T08:43:34.052Z,12.33
2023-02-02T08:46:36.311Z,13.77
2023-02-02T08:49:38.568Z,12.20
2023-02-02T08:52:40.924Z,12.13
2023-02-02T08:55:42.960Z,10.97
2023-02-02T08:58:55.672Z,12.57
2023-02-02T09:01:58.128Z,11.77
2023-02-02T09:05:00.294Z,11.63
2023-02-02T09:08:02.565Z,12.30
2023-02-02T09:11:10.900Z,16.93
2023-02-02T09:14:13.907Z,12.00
2023-02-02T09:17:15.966Z,12.53
2023-02-02T09:20:20.498Z,10.90
2023-02-02T09:26:29.680Z,10.65
2023-02-02T09:29:31.985Z,12.60
2023-02-02T09:32:34.288Z,11.70
2023-02-02T09:35:36.324Z,10.80
2023-02-02T09:38:39.819Z,10.43
2023-02-02T09:41:41.971Z,9.77
2023-02-02T09:45:01.448Z,11.70
2023-02-02T09:48:23.649Z,12.27
2023-02-02T09:51:30.382Z,11.38
2023-02-02T09:54:56.161Z,10.13
2023-02-02T09:58:12.152Z,10.50
2023-02-02T10:01:14.140Z,10.73
2023-02-02T10:04:26.127Z,9.52
2023-02-02T10:07:39.439Z,10.18
2023-02-02T10:10:43.856Z,9.73
2023-02-02T10:13:48.781Z,13.43
2023-02-02T10:16:54.222Z,10.02
2023-02-02T10:20:02.554Z,9.63
2023-02-02T10:23:29.796Z,8.85
2023-02-02T10:26:40.315Z,9.25
2023-02-02T10:30:04.009Z,10.50
2023-02-02T10:33:11.344Z,9.40
2023-02-02T10:36:28.855Z,10.50
2023-02-02T10:39:48.947Z,9.70
2023-02-02T10:43:40.944Z,8.70
2023-02-02T10:46:55.773Z,8.30
2023-02-02T10:50:12.887Z,8.75
2023-02-02T10:53:16.678Z,9.43
2023-02-02T10:56:26.806Z,9.60
2023-02-02T10:59:35.982Z,9.18
2023-02-02T11:02:38.058Z,9.25
2023-02-02T11:05:58.739Z,9.95
2023-02-02T11:09:01.360Z,9.38
2023-02-02T11:12:10.061Z,9.45
2023-02-02T11:15:31.469Z,9.27
2023-02-02T11:18:34.531Z,8.90
2023-02-02T11:21:38.691Z,10.63
2023-02-02T11:24:48.514Z,9.60
2023-02-02T11:27:50.686Z,10.02
2023-02-02T11:30:53.931Z,9.88
2023-02-02T11:34:18.903Z,9.93
2023-02-02T11:37:22.909Z,9.43
2023-02-02T11:40:52.415Z,8.32
2023-02-02T11:43:55.459Z,9.65
2023-02-02T11:46:58.205Z,10.90
2023-02-02T11:50:03.006Z,9.77
2023-02-02T11:53:06.965Z,9.82
2023-02-02T11:56:25.236Z,10.48
2023-02-02T11:59:30.735Z,10.82
2023-02-02T12:02:34.194Z,10.82
2023-02-02T12:05:37.337Z,9.65
2023-02-02T12:08:39.635Z,8.93
2023-02-02T12:11:59.457Z,10.20
2023-02-02T12:15:04.621Z,9.85
2023-02-02T12:18:06.562Z,11.25
2023-02-02T12:21:35.294Z,11.48
2023-02-02T12:24:49.675Z,9.93
2023-02-02T12:28:16.630Z,10.18
2023-02-02T12:31:33.705Z,13.30
2023-02-02T12:35:21.595Z,11.20
2023-02-02T12:38:57.849Z,9.20
2023-02-02T12:42:02.910Z,11.50
2023-02-02T12:45:05.061Z,10.80
2023-02-02T12:48:29.681Z,10.70
2023-02-02T12:51:48.678Z,11.80
2023-02-02T12:55:08.797Z,12.27
2023-02-02T12:58:16.658Z,11.33
2023-02-02T13:01:33.394Z,12.50
2023-02-02T13:05:07.622Z,11.83
2023-02-02T13:08:14.429Z,10.60
2023-02-02T13:11:30.868Z,11.33
2023-02-02T13:14:42.028Z,11.83
2023-02-02T13:17:57.637Z,11.93
2023-02-02T13:21:03.292Z,12.57
2023-02-02T13:24:08.093Z,13.30
2023-02-02T13:27:16.831Z,11.85
2023-02-02T13:30:35.232Z,11.37
2023-02-02T13:33:38.407Z,12.17
2023-02-02T13:36:44.074Z,11.87
2023-02-02T13:40:05.388Z,11.27
2023-02-02T13:43:29.047Z,9.90
2023-02-02T13:46:36.565Z,11.77
2023-02-02T13:49:46.686Z,11.77
2023-02-02T13:53:21.237Z,11.93
2023-02-02T13:56:48.109Z,9.70
2023-02-02T14:00:12.771Z,11.17
2023-02-02T14:03:40.899Z,10.88
2023-02-02T14:06:59.181Z,9.90
2023-02-02T14:10:01.400Z,11.97
2023-02-02T14:13:08.143Z,10.73
2023-02-02T14:16:44.032Z,9.87
2023-02-02T14:19:56.678Z,8.40
2023-02-02T14:22:58.800Z,10.80
2023-02-02T14:26:11.998Z,11.53
2023-02-02T14:29:32.093Z,11.60
2023-02-02T14:32:42.202Z,9.77
2023-02-02T14:35:44.136Z,9.37
2023-02-02T14:38:55.855Z,10.23
2023-02-02T14:42:44.880Z,9.30
2023-02-02T14:45:49.111Z,10.60
2023-02-02T14:48:54.326Z,10.05
2023-02-02T14:52:01.674Z,11.07
2023-02-02T14:55:04.337Z,10.50
2023-02-02T14:58:07.701Z,11.47
2023-02-02T15:01:32.149Z,14.00
2023-02-02T15:04:34.240Z,13.30
2023-02-02T15:07:38.245Z,11.83
2023-02-02T15:10:55.130Z,12.32
2023-02-02T15:14:07.116Z,10.23
2023-02-02T15:17:27.516Z,12.10
2023-02-02T15:20:44.418Z,12.63
2023-02-02T15:23:47.276Z,10.53
2023-02-02T15:26:51.396Z,11.80
2023-02-02T15:29:58.340Z,10.25
2023-02-02T15:33:05.549Z,11.47
2023-02-02T15:36:12.412Z,12.10
2023-02-02T15:39:29.177Z,12.40
2023-02-02T15:42:53.165Z,11.03
2023-02-02T15:46:02.046Z,10.93
2023-02-02T15:49:35.779Z,9.43
2023-02-02T15:52:50.336Z,11.37
2023-02-02T15:55:53.619Z,9.63
2023-02-02T15:58:58.765Z,10.53
2023-02-02T16:02:07.038Z,12.43
2023-02-02T16:05:36.795Z,11.07
2023-02-02T16:08:41.121Z,10.53
2023-02-02T16:11:57.797Z,9.98
2023-02-02T16:15:00.210Z,12.63
2023-02-02T16:18:05.593Z,10.23
2023-02-02T16:21:15.356Z,11.60
2023-02-02T16:24:28.390Z,12.47
2023-02-02T16:27:31.755Z,10.33
2023-02-02T16:30:38.822Z,10.37
2023-02-02T16:33:45.418Z,12.47
2023-02-02T16:37:13.481Z,10.17
2023-02-02T16:40:29.347Z,10.43
2023-02-02T16:43:31.831Z,10.97
2023-02-02T16:46:44.463Z,9.63
2023-02-02T16:49:46.594Z,9.80
2023-02-02T16:52:59.667Z,11.17
2023-02-02T16:56:03.292Z,11.27
2023-02-02T16:59:23.261Z,11.97
2023-02-02T17:02:38.800Z,10.37
2023-02-02T17:05:51.436Z,12.43
2023-02-02T17:08:53.487Z,10.27
2023-02-02T17:12:32.215Z,10.57
2023-02-02T17:15:36.545Z,10.83
2023-02-02T17:18:38.739Z,11.30
2023-02-02T17:21:41.057Z,10.97
2023-02-02T17:24:46.364Z,12.03
2023-02-02T17:27:49.036Z,10.23
2023-02-02T17:31:09.722Z,12.17
2023-02-02T17:34:16.714Z,12.40
2023-02-02T17:37:21.455Z,10.80
2023-02-02T17:40:24.436Z,10.40
2023-02-02T17:43:27.171Z,12.10
2023-02-02T17:46:31.176Z,10.93
2023-02-02T17:49:33.318Z,12.07
2023-02-02T17:52:37.391Z,13.97
2023-02-02T17:55:42.099Z,12.85
2023-02-02T17:58:44.362Z,12.47
2023-02-02T18:01:46.541Z,13.87
2023-02-02T18:04:48.671Z,13.23
2023-02-02T18:07:50.793Z,11.60
2023-02-02T18:10:53.071Z,12.23
2023-02-02T18:13:55.175Z,11.37
2023-02-02T18:16:57.229Z,11.83
2023-02-02T18:20:00.855Z,11.80
2023-02-02T18:23:03.058Z,11.40
2023-02-02T18:26:19.824Z,13.27
2023-02-02T18:29:21.906Z,13.07
2023-02-02T18:32:24.222Z,12.33
2023-02-02T18:35:27.157Z,12.50
2023-02-02T18:38:29.409Z,12.73
2023-02-02T18:41:31.416Z,16.97
2023-02-02T18:44:35.421Z,21.23
2023-02-02T18:47:38.143Z,19.10
2023-02-02T18:50:41.379Z,15.77
2023-02-02T18:53:44.333Z,14.97
2023-02-02T18:56:46.404Z,17.07
2023-02-02T18:59:48.397Z,16.53
2023-02-02T19:02:50.420Z,17.63
2023-02-02T19:06:11.141Z,18.10
2023-02-02T19:09:17.457Z,16.63
2023-02-02T19:12:19.578Z,17.40
2023-02-02T19:15:22.367Z,18.07
2023-02-02T19:18:24.812Z,18.73
2023-02-02T19:21:30.619Z,34.53
2023-02-02T19:24:39.449Z,20.07
2023-02-02T19:27:41.447Z,18.37
2023-02-02T19:30:45.545Z,16.37
2023-02-02T19:33:52.990Z,16.27
2023-02-02T19:36:55.214Z,15.70
2023-02-02T19:40:09.139Z,18.33
2023-02-02T19:43:13.914Z,18.53
2023-02-02T19:46:22.873Z,18.20
2023-02-02T19:49:35.000Z,20.30
2023-02-02T19:52:37.208Z,20.30
2023-02-02T19:55:41.840Z,20.73
2023-02-02T19:58:43.965Z,20.75
2023-02-02T20:01:47.922Z,21.77
2023-02-02T20:05:00.160Z,23.67
2023-02-02T20:08:05.743Z,23.97
2023-02-02T20:11:35.782Z,22.80
2023-02-02T20:14:38.920Z,22.77
2023-02-02T20:17:41.948Z,23.47
2023-02-02T20:20:46.989Z,24.53
2023-02-02T20:23:49.193Z,26.40
2023-02-02T20:26:53.281Z,21.40
2023-02-02T20:30:01.588Z,22.30
2023-02-02T20:33:23.236Z,24.67
2023-02-02T20:36:28.202Z,24.20
2023-02-02T20:42:32.301Z,21.80
2023-02-02T20:45:34.334Z,23.30
2023-02-02T20:48:36.387Z,23.07
2023-02-02T20:51:40.726Z,24.23
2023-02-02T20:54:42.721Z,25.48
2023-02-02T20:57:44.725Z,23.60
2023-02-02T21:00:46.902Z,21.90
2023-02-02T21:03:49.284Z,25.23
2023-02-02T21:06:51.451Z,25.30
2023-02-02T21:09:53.913Z,25.27
2023-02-02T21:12:56.089Z,24.57
2023-02-02T21:15:58.109Z,24.47
2023-02-02T21:19:00.334Z,25.97
2023-02-02T21:22:02.612Z,26.03
2023-02-02T21:25:04.779Z,25.60
2023-02-02T21:28:06.865Z,30.43
2023-02-02T21:31:10.740Z,28.80
2023-02-02T21:34:12.816Z,27.67
2023-02-02T21:37:16.146Z,27.30
2023-02-02T21:40:29.854Z,28.17
2023-02-02T21:43:33.472Z,31.87
2023-02-02T21:46:38.983Z,26.87
2023-02-02T21:49:41.064Z,28.73
2023-02-02T21:52:43.334Z,28.93
2023-02-02T21:55:49.711Z,29.00
2023-02-02T21:58:51.842Z,29.27
2023-02-02T22:01:54.267Z,31.63
2023-02-02T22:04:59.372Z,32.60
2023-02-02T22:08:07.220Z,33.40
2023-02-02T22:11:55.014Z,31.47
2023-02-02T22:15:01.321Z,30.93
2023-02-02T22:18:13.316Z,29.17
2023-02-02T22:21:19.940Z,32.03
2023-02-02T22:24:22.876Z,30.77
2023-02-02T22:27:33.069Z,30.40
2023-02-02T22:30:40.246Z,29.43
2023-02-02T22:33:42.358Z,29.40
2023-02-02T22:36:44.371Z,28.20
2023-02-02T22:39:46.487Z,28.40
2023-02-02T22:42:56.856Z,28.00
2023-02-02T22:45:58.958Z,28.60
2023-02-02T22:49:00.941Z,27.57
2023-02-02T22:52:03.445Z,27.33
2023-02-02T22:55:05.818Z,26.70
2023-02-02T22:58:07.890Z,26.17
2023-02-02T23:01:11.699Z,23.57
2023-02-02T23:04:13.817Z,27.43
2023-02-02T23:07:15.871Z,27.17
2023-02-02T23:10:21.272Z,27.53
2023-02-02T23:13:23.555Z,28.67
2023-02-02T23:16:25.671Z,26.70
2023-02-02T23:19:27.970Z,29.20
2023-02-02T23:22:32.211Z,30.23
2023-02-02T23:25:34.493Z,29.52
2023-02-02T23:28:36.553Z,26.93
2023-02-02T23:31:38.712Z,26.40
2023-02-02T23:34:40.744Z,26.67
2023-02-02T23:37:42.741Z,29.00
2023-02-02T23:40:45.834Z,23.57
2023-02-02T23:43:49.898Z,25.57
2023-02-02T23:46:53.226Z,20.80
2023-02-02T23:49:55.983Z,21.47
2023-02-02T23:52:58.145Z,22.33
2023-02-02T23:56:00.164Z,23.07
2023-02-02T23:59:02.127Z,25.57
